Time;durP1;ratioP1;P1;durP2;ratioP2;P2;SDS_P1;SDS_P2;PMS_P1;PMS_P2;Temp;Humidity;BMP_temperature;BMP_pressure;BME280_temperature;BME280_humidity;BME280_pressure;Samples;Min_cycle;Max_cycle;Signal;HPM_P1;HPM_P2
2022/08/15 00:02:24;;;;;;;;;;;22.30;54.30;;;;;;5090252;28;19919;-75
2022/08/15 00:04:49;;;;;;;;;;;22.20;54.20;;;;;;5072469;28;19919;-75
2022/08/15 00:07:15;;;;;;;;;;;22.00;54.20;;;;;;5088957;28;19912;-75
2022/08/15 00:09:41;;;;;;;;;;;21.90;54.30;;;;;;5088598;28;19923;-75
2022/08/15 00:12:06;;;;;;;;;;;21.90;54.40;;;;;;5088715;28;19916;-75
2022/08/15 00:14:33;;;;;;;;;;;21.90;54.40;;;;;;5090146;28;20388;-75
2022/08/15 00:17:00;;;;;;;;;;;21.90;54.30;;;;;;5090026;28;20046;-76
2022/08/15 00:19:29;;;;;;;;;;;22.00;54.30;;;;;;5089990;28;19908;-75
2022/08/15 00:21:59;;;;;;;;;;;22.10;54.20;;;;;;5090475;28;19908;-75
2022/08/15 00:24:26;;;;;;;;;;;22.10;54.10;;;;;;5089965;28;19908;-75
2022/08/15 00:26:52;;;;;;;;;;;22.20;54.20;;;;;;5088462;28;19912;-76
2022/08/15 00:29:19;;;;;;;;;;;22.10;54.10;;;;;;5089768;28;20333;-76
2022/08/15 00:31:45;;;;;;;;;;;22.10;54.10;;;;;;5088646;28;19915;-76
2022/08/15 00:34:11;;;;;;;;;;;22.10;54.10;;;;;;5089796;28;19916;-76
2022/08/15 00:36:37;;;;;;;;;;;22.10;54.20;;;;;;5089783;28;19954;-77
2022/08/15 00:39:03;;;;;;;;;;;21.90;54.30;;;;;;5089747;28;19955;-76
2022/08/15 00:41:41;;;;;;;;;;;21.80;54.50;;;;;;5089414;28;19924;-76
2022/08/15 00:44:09;;;;;;;;;;;21.90;54.60;;;;;;5088287;28;20010;-76
2022/08/15 00:46:36;;;;;;;;;;;21.90;54.50;;;;;;5088363;28;20031;-77
2022/08/15 00:49:02;;;;;;;;;;;21.90;54.50;;;;;;5087484;28;19995;-76
2022/08/15 00:51:37;;;;;;;;;;;21.80;54.40;;;;;;5089238;28;20019;-76
2022/08/15 00:54:04;;;;;;;;;;;21.70;54.50;;;;;;5089276;28;19920;-76
2022/08/15 00:56:31;;;;;;;;;;;21.60;54.50;;;;;;5089311;28;19912;-76
2022/08/15 00:58:57;;;;;;;;;;;21.60;54.70;;;;;;5089273;28;19958;-76
2022/08/15 01:01:23;;;;;;;;;;;21.60;54.70;;;;;;5089595;28;19943;-76
2022/08/15 01:03:49;;;;;;;;;;;21.50;54.60;;;;;;5087807;28;19919;-75
2022/08/15 01:06:15;;;;;;;;;;;21.60;54.70;;;;;;5089173;28;19951;-76
2022/08/15 01:08:43;;;;;;;;;;;21.60;54.60;;;;;;5089068;28;19947;-75
2022/08/15 01:11:12;;;;;;;;;;;21.60;54.60;;;;;;5088996;28;19908;-75
2022/08/15 01:13:38;;;;;;;;;;;21.50;54.70;;;;;;5088896;28;20429;-76
2022/08/15 01:16:03;;;;;;;;;;;21.40;54.80;;;;;;5089032;28;19912;-75
2022/08/15 01:18:29;;;;;;;;;;;21.40;55.00;;;;;;5087506;28;19918;-75
2022/08/15 01:20:58;;;;;;;;;;;21.40;55.10;;;;;;5087491;28;19939;-76
2022/08/15 01:23:44;;;;;;;;;;;21.40;55.10;;;;;;5087572;28;19978;-77
2022/08/15 01:26:10;;;;;;;;;;;21.40;55.10;;;;;;5057204;28;19912;-76
2022/08/15 01:28:39;;;;;;;;;;;21.40;55.10;;;;;;5089218;28;20178;-76
2022/08/15 01:31:11;;;;;;;;;;;21.40;55.10;;;;;;5088557;28;19908;-76
2022/08/15 01:33:48;;;;;;;;;;;21.40;55.00;;;;;;5088586;28;19916;-76
2022/08/15 01:36:14;;;;;;;;;;;21.20;55.00;;;;;;5087368;28;19915;-76
2022/08/15 01:38:42;;;;;;;;;;;21.10;55.10;;;;;;5088518;28;19922;-76
2022/08/15 01:41:14;;;;;;;;;;;21.00;55.30;;;;;;5088286;28;19924;-76
2022/08/15 01:43:45;;;;;;;;;;;21.00;55.40;;;;;;5087095;28;20342;-76
2022/08/15 01:46:11;;;;;;;;;;;21.00;55.40;;;;;;5088659;28;20432;-75
2022/08/15 01:48:44;;;;;;;;;;;21.00;55.30;;;;;;5087177;28;19923;-75
2022/08/15 01:51:13;;;;;;;;;;;21.10;55.20;;;;;;5088392;28;19912;-75
2022/08/15 01:53:59;;;;;;;;;;;21.10;55.00;;;;;;5088147;28;19923;-76
2022/08/15 01:56:31;;;;;;;;;;;21.10;54.90;;;;;;5088239;28;20383;-76
2022/08/15 01:59:03;;;;;;;;;;;21.10;54.80;;;;;;5086218;28;19915;-76
2022/08/15 02:01:46;;;;;;;;;;;21.00;54.80;;;;;;5086790;28;19912;-77
2022/08/15 02:04:13;;;;;;;;;;;21.00;54.80;;;;;;5088141;28;20379;-76
2022/08/15 02:06:40;;;;;;;;;;;21.00;54.80;;;;;;5088210;28;19947;-75
2022/08/15 02:09:07;;;;;;;;;;;20.90;54.90;;;;;;5088044;28;20321;-76
2022/08/15 02:11:33;;;;;;;;;;;20.90;55.10;;;;;;5088110;28;19915;-76
2022/08/15 02:13:59;;;;;;;;;;;20.90;55.20;;;;;;5086855;28;19912;-77
2022/08/15 02:16:26;;;;;;;;;;;20.90;55.10;;;;;;5088063;28;19919;-76
2022/08/15 02:18:52;;;;;;;;;;;20.90;55.00;;;;;;5087967;28;19919;-76
2022/08/15 02:21:18;;;;;;;;;;;20.90;55.00;;;;;;5087916;28;19912;-76
2022/08/15 02:23:44;;;;;;;;;;;20.90;55.00;;;;;;5086789;28;20384;-75
2022/08/15 02:26:10;;;;;;;;;;;20.80;55.10;;;;;;5087913;28;19962;-75
2022/08/15 02:28:38;;;;;;;;;;;20.80;55.20;;;;;;5086856;28;19923;-75
2022/08/15 02:31:15;;;;;;;;;;;20.70;55.30;;;;;;5086520;28;19918;-75
2022/08/15 02:33:44;;;;;;;;;;;20.70;55.30;;;;;;5086474;28;19912;-75
2022/08/15 02:36:09;;;;;;;;;;;20.60;55.30;;;;;;5086643;28;19912;-76
2022/08/15 02:38:35;;;;;;;;;;;20.40;55.40;;;;;;5086438;28;20036;-76
2022/08/15 02:41:01;;;;;;;;;;;20.20;55.50;;;;;;5087701;28;20398;-76
2022/08/15 02:43:27;;;;;;;;;;;20.10;55.70;;;;;;5086386;28;20439;-77
2022/08/15 02:45:53;;;;;;;;;;;20.10;55.80;;;;;;5086572;28;19912;-76
2022/08/15 02:48:19;;;;;;;;;;;20.10;55.60;;;;;;5087815;28;19923;-76
2022/08/15 02:50:45;;;;;;;;;;;20.20;55.50;;;;;;5087541;28;19908;-75
2022/08/15 02:53:12;;;;;;;;;;;20.20;55.40;;;;;;5086556;28;19916;-76
2022/08/15 02:55:40;;;;;;;;;;;20.20;55.40;;;;;;5087682;28;19908;-76
2022/08/15 02:58:05;;;;;;;;;;;20.30;55.50;;;;;;5086352;28;19915;-76
2022/08/15 03:00:31;;;;;;;;;;;20.30;55.60;;;;;;5087723;28;19908;-76
2022/08/15 03:02:58;;;;;;;;;;;20.20;55.50;;;;;;5086435;28;19947;-75
2022/08/15 03:05:24;;;;;;;;;;;20.20;55.60;;;;;;5087604;28;19938;-76
2022/08/15 03:07:50;;;;;;;;;;;20.30;55.70;;;;;;5069572;28;19919;-76
2022/08/15 03:10:16;;;;;;;;;;;20.40;55.60;;;;;;5086386;28;19909;-76
2022/08/15 03:12:55;;;;;;;;;;;20.40;55.60;;;;;;5091283;28;19935;-76
2022/08/15 03:15:22;;;;;;;;;;;20.40;55.50;;;;;;5091185;28;20018;-76
2022/08/15 03:17:49;;;;;;;;;;;20.60;55.50;;;;;;5091269;28;20091;-75
2022/08/15 03:20:15;;;;;;;;;;;20.60;55.40;;;;;;5089780;28;20017;-75
2022/08/15 03:22:41;;;;;;;;;;;20.70;55.30;;;;;;5089956;28;20007;-76
2022/08/15 03:25:07;;;;;;;;;;;20.80;55.30;;;;;;5091010;28;19966;-75
2022/08/15 03:27:34;;;;;;;;;;;20.90;55.20;;;;;;5072921;28;19943;-75
2022/08/15 03:29:59;;;;;;;;;;;20.80;55.20;;;;;;5089511;28;20022;-76
2022/08/15 03:32:25;;;;;;;;;;;20.80;55.30;;;;;;5090910;28;20003;-75
2022/08/15 03:34:50;;;;;;;;;;;20.90;55.40;;;;;;5072963;28;19916;-76
2022/08/15 03:37:16;;;;;;;;;;;21.00;55.40;;;;;;5089684;28;19920;-75
2022/08/15 03:39:41;;;;;;;;;;;21.10;55.40;;;;;;5089315;28;19924;-75
2022/08/15 03:42:08;;;;;;;;;;;21.10;55.20;;;;;;5090936;28;19920;-75
2022/08/15 03:44:34;;;;;;;;;;;21.20;55.10;;;;;;5090716;28;19908;-76
2022/08/15 03:46:59;;;;;;;;;;;21.20;55.00;;;;;;5072401;28;19913;-75
2022/08/15 03:49:25;;;;;;;;;;;21.20;55.00;;;;;;5089290;28;19916;-76
2022/08/15 03:51:51;;;;;;;;;;;21.20;55.00;;;;;;5090450;28;19935;-75
2022/08/15 03:54:16;;;;;;;;;;;21.20;55.50;;;;;;5089076;28;20026;-75
2022/08/15 03:56:42;;;;;;;;;;;21.10;55.00;;;;;;5090550;28;19912;-75
2022/08/15 03:59:08;;;;;;;;;;;21.00;55.10;;;;;;5089226;28;19912;-75
2022/08/15 04:01:35;;;;;;;;;;;20.80;55.30;;;;;;5090478;28;19908;-75
2022/08/15 04:04:01;;;;;;;;;;;20.80;55.50;;;;;;5090359;28;19971;-75
2022/08/15 04:06:30;;;;;;;;;;;20.80;55.50;;;;;;5089212;28;19954;-75
2022/08/15 04:08:58;;;;;;;;;;;20.80;55.50;;;;;;5089120;28;19909;-75
2022/08/15 04:11:24;;;;;;;;;;;20.90;55.40;;;;;;5090131;28;20037;-75
2022/08/15 04:13:50;;;;;;;;;;;20.90;55.50;;;;;;5090128;28;19923;-75
2022/08/15 04:16:16;;;;;;;;;;;20.90;55.40;;;;;;5088947;28;19912;-75
2022/08/15 04:18:42;;;;;;;;;;;20.90;55.30;;;;;;5090128;28;20001;-75
2022/08/15 04:21:10;;;;;;;;;;;20.90;55.20;;;;;;5088667;28;19955;-75
2022/08/15 04:23:36;;;;;;;;;;;21.00;55.20;;;;;;5089493;28;19994;-76
2022/08/15 04:26:03;;;;;;;;;;;20.90;55.20;;;;;;5088516;28;20394;-75
2022/08/15 04:28:29;;;;;;;;;;;20.90;55.10;;;;;;5088938;28;20326;-76
2022/08/15 04:30:55;;;;;;;;;;;20.90;55.10;;;;;;5088656;28;19943;-75
2022/08/15 04:33:22;;;;;;;;;;;20.90;55.20;;;;;;5088397;28;19913;-75
2022/08/15 04:35:59;;;;;;;;;;;20.90;55.20;;;;;;5089811;28;19912;-77
2022/08/15 04:38:25;;;;;;;;;;;20.90;55.20;;;;;;5089932;28;19916;-77
2022/08/15 04:40:51;;;;;;;;;;;20.80;55.20;;;;;;5088051;28;20006;-76
2022/08/15 04:43:17;;;;;;;;;;;20.80;55.20;;;;;;5088337;28;19999;-76
2022/08/15 04:45:43;;;;;;;;;;;20.70;55.30;;;;;;5089476;28;19991;-77
2022/08/15 04:48:10;;;;;;;;;;;20.60;55.30;;;;;;5089406;28;20002;-76
2022/08/15 04:50:37;;;;;;;;;;;20.60;55.40;;;;;;5089540;28;19912;-76
2022/08/15 04:53:04;;;;;;;;;;;20.50;55.30;;;;;;5089346;28;20014;-76
2022/08/15 04:55:30;;;;;;;;;;;20.30;55.30;;;;;;5087903;28;19918;-77
2022/08/15 04:57:57;;;;;;;;;;;20.30;55.40;;;;;;5089701;28;19908;-76
2022/08/15 05:00:25;;;;;;;;;;;20.20;55.60;;;;;;5089118;28;19908;-76
2022/08/15 05:03:02;;;;;;;;;;;20.20;55.60;;;;;;5087893;28;19916;-76
2022/08/15 05:05:29;;;;;;;;;;;20.20;55.50;;;;;;5089336;28;19963;-76
2022/08/15 05:07:54;;;;;;;;;;;20.10;55.60;;;;;;5087751;28;20271;-77
2022/08/15 05:10:20;;;;;;;;;;;19.90;55.80;;;;;;5089073;28;19991;-76
2022/08/15 05:12:46;;;;;;;;;;;19.90;55.90;;;;;;5087863;28;20379;-76
2022/08/15 05:15:13;;;;;;;;;;;19.90;55.90;;;;;;5089076;28;19912;-76
2022/08/15 05:17:38;;;;;;;;;;;19.90;55.90;;;;;;5089117;28;19908;-76
2022/08/15 05:20:06;;;;;;;;;;;20.00;55.90;;;;;;5087733;28;19912;-76
2022/08/15 05:22:31;;;;;;;;;;;20.00;55.90;;;;;;5088810;28;19916;-76
2022/08/15 05:24:57;;;;;;;;;;;19.90;55.80;;;;;;5070622;28;19920;-76
2022/08/15 05:27:22;;;;;;;;;;;19.80;55.90;;;;;;5088814;28;20003;-77
2022/08/15 05:29:49;;;;;;;;;;;19.70;56.10;;;;;;5088772;28;19915;-77
2022/08/15 05:32:14;;;;;;;;;;;19.60;56.40;;;;;;5088541;28;20387;-76
2022/08/15 05:34:40;;;;;;;;;;;19.50;56.20;;;;;;5088267;28;20006;-77
2022/08/15 05:37:05;;;;;;;;;;;19.50;56.30;;;;;;5087123;28;19913;-76
2022/08/15 05:39:32;;;;;;;;;;;19.50;56.40;;;;;;5088334;28;19963;-76
2022/08/15 05:41:57;;;;;;;;;;;19.60;56.40;;;;;;5088551;28;19923;-76
2022/08/15 05:44:31;;;;;;;;;;;19.60;56.30;;;;;;5088295;28;19912;-76
2022/08/15 05:47:02;;;;;;;;;;;19.60;56.20;;;;;;5088353;28;19908;-76
2022/08/15 05:49:33;;;;;;;;;;;19.70;56.30;;;;;;5086846;28;19916;-76
2022/08/15 05:52:17;;;;;;;;;;;19.70;56.20;;;;;;5086891;28;19908;-76
2022/08/15 05:54:46;;;;;;;;;;;19.70;56.20;;;;;;5086754;28;20418;-76
2022/08/15 05:57:14;;;;;;;;;;;19.70;56.30;;;;;;5088306;28;19919;-76
2022/08/15 05:59:41;;;;;;;;;;;19.70;56.30;;;;;;5086529;28;20325;-76
2022/08/15 06:02:11;;;;;;;;;;;19.90;56.30;;;;;;5086532;28;19912;-76
2022/08/15 06:04:36;;;;;;;;;;;20.00;56.20;;;;;;5088149;28;19912;-76
2022/08/15 06:07:04;;;;;;;;;;;20.00;56.00;;;;;;5087937;28;19916;-75
2022/08/15 06:09:33;;;;;;;;;;;20.10;56.10;;;;;;5087923;28;19961;-76
2022/08/15 06:12:00;;;;;;;;;;;20.10;56.10;;;;;;5086660;28;20306;-76
2022/08/15 06:14:29;;;;;;;;;;;20.10;56.10;;;;;;5087962;28;19916;-76
2022/08/15 06:16:56;;;;;;;;;;;20.20;56.10;;;;;;5088013;28;19916;-77
2022/08/15 06:19:24;;;;;;;;;;;20.20;56.10;;;;;;5087909;28;19908;-77
2022/08/15 06:22:09;;;;;;;;;;;20.10;56.20;;;;;;5087967;28;19915;-79
2022/08/15 06:25:00;;;;;;;;;;;20.20;56.70;;;;;;5087973;28;19915;-76
2022/08/15 06:27:38;;;;;;;;;;;20.30;56.20;;;;;;5087606;28;19912;-76
2022/08/15 06:30:07;;;;;;;;;;;20.30;56.10;;;;;;5087729;28;19912;-76
2022/08/15 06:32:55;;;;;;;;;;;20.40;56.20;;;;;;5088404;28;19947;-76
2022/08/15 06:35:27;;;;;;;;;;;20.40;56.20;;;;;;5087512;28;19908;-76
2022/08/15 06:38:11;;;;;;;;;;;20.40;56.30;;;;;;5086416;28;19909;-76
2022/08/15 06:40:55;;;;;;;;;;;20.40;56.30;;;;;;5087224;28;19947;-76
2022/08/15 06:43:20;;;;;;;;;;;20.40;56.40;;;;;;5088088;28;19955;-76
2022/08/15 06:45:48;;;;;;;;;;;20.50;56.40;;;;;;5088893;28;19943;-76
2022/08/15 06:48:16;;;;;;;;;;;20.50;56.40;;;;;;5091875;28;19965;-76
2022/08/15 06:50:44;;;;;;;;;;;20.70;56.50;;;;;;5091732;28;19915;-76
2022/08/15 06:53:10;;;;;;;;;;;20.80;56.40;;;;;;5091272;28;19965;-76
2022/08/15 06:55:52;;;;;;;;;;;20.90;56.20;;;;;;5091401;28;19908;-76
2022/08/15 06:58:23;;;;;;;;;;;21.00;56.10;;;;;;5089886;28;19915;-76
2022/08/15 07:00:57;;;;;;;;;;;21.10;56.00;;;;;;5091374;28;20002;-76
2022/08/15 07:03:30;;;;;;;;;;;21.10;56.00;;;;;;5090005;28;19908;-76
2022/08/15 07:05:57;;;;;;;;;;;21.20;56.20;;;;;;5091334;28;19912;-76
2022/08/15 07:08:25;;;;;;;;;;;21.20;56.20;;;;;;5089884;28;19908;-75
2022/08/15 07:11:08;;;;;;;;;;;21.20;56.20;;;;;;5091026;28;20112;-76
2022/08/15 07:13:39;;;;;;;;;;;21.20;56.30;;;;;;5089574;28;20344;-76
2022/08/15 07:16:23;;;;;;;;;;;21.30;56.40;;;;;;5089559;28;19984;-76
2022/08/15 07:18:52;;;;;;;;;;;21.30;56.40;;;;;;5089784;28;19934;-76
2022/08/15 07:21:20;;;;;;;;;;;21.40;56.50;;;;;;5089570;28;19908;-76
2022/08/15 07:23:58;;;;;;;;;;;21.40;56.40;;;;;;5091022;28;20007;-76
2022/08/15 07:26:24;;;;;;;;;;;21.50;56.40;;;;;;5089547;28;19908;-76
2022/08/15 07:28:50;;;;;;;;;;;21.60;56.30;;;;;;5090698;28;19931;-76
2022/08/15 07:31:34;;;;;;;;;;;21.60;56.30;;;;;;5089281;28;20375;-76
2022/08/15 07:34:05;;;;;;;;;;;21.50;56.40;;;;;;5090453;28;19923;-76
2022/08/15 07:36:33;;;;;;;;;;;21.50;56.50;;;;;;5090514;28;19915;-76
2022/08/15 07:38:59;;;;;;;;;;;21.50;56.60;;;;;;5089150;28;19908;-76
2022/08/15 07:41:25;;;;;;;;;;;21.60;56.70;;;;;;5090540;28;20269;-76
2022/08/15 07:43:56;;;;;;;;;;;21.70;56.70;;;;;;5089239;28;20245;-75
2022/08/15 07:46:37;;;;;;;;;;;21.90;56.60;;;;;;5090252;28;19915;-75
2022/08/15 07:49:17;;;;;;;;;;;22.00;56.50;;;;;;5090401;28;19915;-76
2022/08/15 07:52:03;;;;;;;;;;;22.10;56.40;;;;;;5090250;28;19912;-75
2022/08/15 07:54:43;;;;;;;;;;;22.10;56.40;;;;;;5089585;28;20372;-76
2022/08/15 07:57:20;;;;;;;;;;;22.20;56.30;;;;;;5088856;28;19923;-75
2022/08/15 08:00:04;;;;;;;;;;;22.20;56.30;;;;;;5088555;28;19908;-75
2022/08/15 08:02:40;;;;;;;;;;;22.30;56.40;;;;;;5089645;28;19913;-75
2022/08/15 08:05:06;;;;;;;;;;;22.40;56.40;;;;;;5089837;28;19908;-75
2022/08/15 08:07:36;;;;;;;;;;;22.50;56.50;;;;;;5071493;28;20565;-75
2022/08/15 08:10:21;;;;;;;;;;;22.60;56.40;;;;;;5089802;28;19999;-75
2022/08/15 08:12:54;;;;;;;;;;;22.70;56.20;;;;;;5089870;28;19919;-75
2022/08/15 08:15:33;;;;;;;;;;;22.80;56.20;;;;;;5088223;28;19912;-76
2022/08/15 08:17:59;;;;;;;;;;;22.90;56.20;;;;;;5089880;28;20009;-75
2022/08/15 08:20:32;;;;;;;;;;;22.90;56.10;;;;;;5089630;28;19985;-76
2022/08/15 08:23:02;;;;;;;;;;;22.90;56.20;;;;;;5089720;28;20030;-76
2022/08/15 08:25:31;;;;;;;;;;;23.00;56.30;;;;;;5088377;28;20002;-75
2022/08/15 08:28:16;;;;;;;;;;;23.10;56.40;;;;;;5088243;28;20367;-75
2022/08/15 08:30:47;;;;;;;;;;;23.30;56.40;;;;;;5088095;28;20455;-76
2022/08/15 08:33:17;;;;;;;;;;;23.40;56.30;;;;;;5089451;28;19926;-76
2022/08/15 08:35:47;;;;;;;;;;;23.50;56.20;;;;;;5089420;28;19908;-76
2022/08/15 08:38:22;;;;;;;;;;;23.50;56.20;;;;;;5089403;28;19912;-77
2022/08/15 08:43:38;;;;;;;;;;;24.10;57.00;;;;;;5089275;28;20374;-77
2022/08/15 08:46:21;;;;;;;;;;;25.30;57.30;;;;;;5087947;28;19912;-76
2022/08/15 08:48:47;;;;;;;;;;;26.40;56.70;;;;;;5089460;28;19915;-77
2022/08/15 08:51:16;;;;;;;;;;;27.90;56.80;;;;;;5089148;28;20325;-76
2022/08/15 08:53:54;;;;;;;;;;;29.30;56.40;;;;;;5087074;28;19920;-76
2022/08/15 08:56:33;;;;;;;;;;;30.30;56.10;;;;;;5088726;28;19916;-77
2022/08/15 08:59:06;;;;;;;;;;;31.00;55.90;;;;;;5088590;28;19995;-76
2022/08/15 09:01:34;;;;;;;;;;;30.80;55.60;;;;;;5088469;28;19912;-76
2022/08/15 09:04:03;;;;;;;;;;;30.50;56.20;;;;;;5090528;28;19999;-76
2022/08/15 09:06:31;;;;;;;;;;;30.50;56.60;;;;;;5090557;28;20241;-75
2022/08/15 09:09:11;;;;;;;;;;;30.20;56.50;;;;;;5089910;28;19908;-76
2022/08/15 09:11:43;;;;;;;;;;;29.90;56.70;;;;;;5090161;28;20267;-76
2022/08/15 09:14:17;;;;;;;;;;;30.20;57.00;;;;;;5088608;28;19912;-76
2022/08/15 09:16:43;;;;;;;;;;;30.90;57.20;;;;;;5088903;28;19978;-76
2022/08/15 09:19:27;;;;;;;;;;;32.10;57.20;;;;;;5090098;28;19934;-78
2022/08/15 09:21:52;;;;;;;;;;;33.20;57.00;;;;;;5089721;28;19952;-77
2022/08/15 09:24:19;;;;;;;;;;;34.30;56.70;;;;;;5089638;28;19908;-76
2022/08/15 09:26:51;;;;;;;;;;;34.30;55.80;;;;;;5088291;28;19995;-78
2022/08/15 09:29:27;;;;;;;;;;;33.70;56.10;;;;;;5087530;28;19919;-76
2022/08/15 09:32:19;;;;;;;;;;;33.00;56.20;;;;;;5087742;28;19912;-74
2022/08/15 09:34:48;;;;;;;;;;;31.70;56.30;;;;;;5084020;28;19912;-75
2022/08/15 09:37:13;;;;;;;;;;;31.00;57.50;;;;;;5083976;28;19912;-75
2022/08/15 09:39:47;;;;;;;;;;;30.90;57.30;;;;;;5087296;28;19961;-74
2022/08/15 09:42:18;;;;;;;;;;;30.90;57.40;;;;;;5085821;28;19934;-74
2022/08/15 09:44:46;;;;;;;;;;;31.10;57.10;;;;;;5088357;28;20008;-74
2022/08/15 09:47:32;;;;;;;;;;;30.90;56.70;;;;;;5087630;28;20327;-73
2022/08/15 09:50:01;;;;;;;;;;;30.50;57.20;;;;;;5076733;28;19965;-74
2022/08/15 09:52:35;;;;;;;;;;;31.00;58.40;;;;;;5085364;28;20047;-74
2022/08/15 09:55:08;;;;;;;;;;;31.70;58.30;;;;;;5087776;28;19908;-74
2022/08/15 09:57:39;;;;;;;;;;;32.00;57.80;;;;;;5087680;28;19958;-74
2022/08/15 10:00:19;;;;;;;;;;;32.80;58.20;;;;;;5088276;28;19909;-75
2022/08/15 10:02:46;;;;;;;;;;;33.80;57.70;;;;;;5086853;28;20374;-74
2022/08/15 10:05:14;;;;;;;;;;;34.60;57.70;;;;;;5088389;28;19917;-76
2022/08/15 10:07:46;;;;;;;;;;;35.50;57.60;;;;;;5087616;28;19912;-74
2022/08/15 10:10:14;;;;;;;;;;;36.30;57.70;;;;;;5088284;28;19908;-74
2022/08/15 10:13:00;;;;;;;;;;;37.20;58.00;;;;;;5088429;28;19916;-74
2022/08/15 10:15:35;;;;;;;;;;;37.90;57.30;;;;;;5086551;28;19908;-74
2022/08/15 10:18:05;;;;;;;;;;;38.60;57.00;;;;;;5088127;28;19908;-73
2022/08/15 10:20:31;;;;;;;;;;;38.60;56.30;;;;;;5087541;28;19908;-78
2022/08/15 10:22:57;;;;;;;;;;;38.00;55.80;;;;;;5089127;28;19977;-74
2022/08/15 10:25:26;;;;;;;;;;;36.90;55.40;;;;;;5089082;28;19915;-74
2022/08/15 10:28:05;;;;;;;;;;;35.60;55.60;;;;;;5087149;28;19915;-78
2022/08/15 10:30:33;;;;;;;;;;;34.40;56.10;;;;;;5088505;28;19988;-75
2022/08/15 10:33:00;;;;;;;;;;;33.30;56.50;;;;;;5088962;28;19999;-74
2022/08/15 10:35:31;;;;;;;;;;;32.40;56.50;;;;;;5088055;28;20502;-82
2022/08/15 10:38:00;;;;;;;;;;;31.70;56.80;;;;;;5089444;28;20469;-71
2022/08/15 10:40:44;;;;;;;;;;;31.10;56.80;;;;;;5089905;28;19976;-74
2022/08/15 10:43:19;;;;;;;;;;;30.60;57.00;;;;;;5089101;28;19909;-74
2022/08/15 10:45:55;;;;;;;;;;;30.10;56.90;;;;;;5087451;28;20367;-73
2022/08/15 10:48:27;;;;;;;;;;;29.70;56.80;;;;;;5087062;28;19931;-77
2022/08/15 10:50:53;;;;;;;;;;;29.30;56.80;;;;;;5087645;28;19915;-73
2022/08/15 10:53:30;;;;;;;;;;;29.00;56.80;;;;;;5088774;28;19916;-75
2022/08/15 10:56:18;;;;;;;;;;;28.70;56.80;;;;;;5088484;28;19916;-76
2022/08/15 10:58:45;;;;;;;;;;;28.50;56.80;;;;;;5088837;28;19912;-75
2022/08/15 11:01:27;;;;;;;;;;;28.40;57.00;;;;;;5088446;28;19961;-76
2022/08/15 11:04:07;;;;;;;;;;;28.20;57.10;;;;;;5087426;28;19915;-75
2022/08/15 11:06:39;;;;;;;;;;;28.00;57.20;;;;;;5085035;28;20327;-76
2022/08/15 11:09:07;;;;;;;;;;;27.80;57.30;;;;;;5087842;28;19918;-75
2022/08/15 11:11:38;;;;;;;;;;;27.60;57.20;;;;;;5088238;28;19919;-75
2022/08/15 11:14:08;;;;;;;;;;;27.40;57.30;;;;;;5088163;28;19912;-76
2022/08/15 11:16:40;;;;;;;;;;;27.00;57.20;;;;;;5087927;28;20317;-76
2022/08/15 11:19:18;;;;;;;;;;;26.60;57.30;;;;;;5087632;28;19915;-78
2022/08/15 11:21:48;;;;;;;;;;;26.30;57.30;;;;;;5088250;28;19908;-77
2022/08/15 11:24:23;;;;;;;;;;;25.90;57.40;;;;;;5088895;28;19915;-77
2022/08/15 11:26:49;;;;;;;;;;;25.60;57.50;;;;;;5088675;28;19911;-75
2022/08/15 11:29:15;;;;;;;;;;;25.30;57.50;;;;;;5087129;28;20003;-76
2022/08/15 11:31:45;;;;;;;;;;;25.10;57.40;;;;;;5089320;28;19912;-76
2022/08/15 11:34:22;;;;;;;;;;;24.90;57.50;;;;;;5091687;28;19912;-75
2022/08/15 11:36:48;;;;;;;;;;;24.70;57.50;;;;;;5091704;28;19908;-74
2022/08/15 11:39:15;;;;;;;;;;;24.50;57.50;;;;;;5092163;28;19909;-75
2022/08/15 11:41:43;;;;;;;;;;;24.50;57.50;;;;;;5091750;28;20444;-77
2022/08/15 11:44:09;;;;;;;;;;;24.40;57.50;;;;;;5090658;28;20069;-76
2022/08/15 11:46:36;;;;;;;;;;;24.30;57.50;;;;;;5091980;28;19915;-75
2022/08/15 11:49:05;;;;;;;;;;;24.30;57.60;;;;;;5090396;28;19908;-76
2022/08/15 11:51:35;;;;;;;;;;;24.40;57.60;;;;;;5090333;28;19915;-75
2022/08/15 11:54:19;;;;;;;;;;;24.60;57.50;;;;;;5092303;28;20288;-76
2022/08/15 11:56:57;;;;;;;;;;;24.80;57.50;;;;;;5092154;28;19908;-75
2022/08/15 11:59:24;;;;;;;;;;;25.10;57.40;;;;;;5092017;28;19915;-75
2022/08/15 12:02:02;;;;;;;;;;;25.40;57.60;;;;;;5091521;28;19931;-77
2022/08/15 12:04:28;;;;;;;;;;;26.00;57.90;;;;;;5089958;28;19985;-75
2022/08/15 12:06:55;;;;;;;;;;;26.70;57.90;;;;;;5089815;28;19908;-76
2022/08/15 12:09:22;;;;;;;;;;;27.30;57.70;;;;;;5091663;28;19948;-77
2022/08/15 12:11:49;;;;;;;;;;;28.00;57.70;;;;;;5089679;28;19952;-76
2022/08/15 12:14:18;;;;;;;;;;;28.80;57.90;;;;;;5090517;28;19938;-77
2022/08/15 12:16:46;;;;;;;;;;;30.20;58.30;;;;;;5088815;28;20358;-76
2022/08/15 12:19:41;;;;;;;;;;;31.10;57.70;;;;;;5088581;28;19955;-76
2022/08/15 12:22:14;;;;;;;;;;;31.50;57.80;;;;;;5071394;28;19908;-75
2022/08/15 12:24:42;;;;;;;;;;;31.90;57.80;;;;;;5089840;28;19919;-75
2022/08/15 12:27:09;;;;;;;;;;;31.80;57.50;;;;;;5088844;28;19920;-75
2022/08/15 12:29:35;;;;;;;;;;;31.90;58.00;;;;;;5088705;28;20011;-75
2022/08/15 12:32:03;;;;;;;;;;;32.50;58.50;;;;;;5088540;28;19952;-77
2022/08/15 12:34:33;;;;;;;;;;;33.30;58.70;;;;;;5087755;28;20330;-76
2022/08/15 12:37:03;;;;;;;;;;;34.10;58.60;;;;;;5089123;28;19931;-75
2022/08/15 12:39:29;;;;;;;;;;;34.70;58.40;;;;;;5089166;28;20526;-78
2022/08/15 12:41:54;;;;;;;;;;;35.20;57.90;;;;;;5087940;28;19923;-79
2022/08/15 12:44:20;;;;;;;;;;;34.70;57.40;;;;;;5087046;28;19916;-78
2022/08/15 12:46:46;;;;;;;;;;;34.10;57.60;;;;;;5088842;28;19919;-77
2022/08/15 12:49:11;;;;;;;;;;;34.00;58.50;;;;;;5088621;28;20680;-76
2022/08/15 12:51:37;;;;;;;;;;;34.30;58.60;;;;;;5087316;28;19916;-76
2022/08/15 12:54:03;;;;;;;;;;;34.90;58.50;;;;;;5087617;28;20356;-77
2022/08/15 12:56:29;;;;;;;;;;;35.20;58.20;;;;;;5086219;28;19975;-76
2022/08/15 12:58:54;;;;;;;;;;;35.50;58.40;;;;;;5087213;28;20334;-78
2022/08/15 13:01:20;;;;;;;;;;;36.00;58.40;;;;;;5085567;28;20374;-78
2022/08/15 13:03:45;;;;;;;;;;;35.80;57.90;;;;;;5088174;28;19913;-76
2022/08/15 13:06:17;;;;;;;;;;;35.00;57.70;;;;;;5088233;28;19908;-78
2022/08/15 13:08:43;;;;;;;;;;;33.90;57.50;;;;;;5084365;28;19959;-75
2022/08/15 13:11:09;;;;;;;;;;;32.60;57.50;;;;;;5087919;28;19962;-76
2022/08/15 13:13:35;;;;;;;;;;;31.50;57.80;;;;;;5088467;28;19920;-76
2022/08/15 13:16:01;;;;;;;;;;;30.70;58.10;;;;;;5088122;28;19969;-76
2022/08/15 13:18:27;;;;;;;;;;;30.00;58.00;;;;;;5088772;28;19916;-74
2022/08/15 13:23:40;;;;;;;;;;;28.90;58.50;;;;;;5087222;28;19962;-75
2022/08/15 13:26:08;;;;;;;;;;;28.70;58.30;;;;;;5085529;28;20007;-75
2022/08/15 13:28:35;;;;;;;;;;;28.60;58.30;;;;;;5087365;28;20298;-76
2022/08/15 13:31:01;;;;;;;;;;;28.80;58.30;;;;;;5086832;28;19920;-76
2022/08/15 13:33:27;;;;;;;;;;;28.90;58.10;;;;;;5087944;28;19969;-75
2022/08/15 13:35:52;;;;;;;;;;;29.10;58.40;;;;;;5087985;28;20340;-76
2022/08/15 13:38:20;;;;;;;;;;;29.20;58.10;;;;;;5088428;28;19916;-75
2022/08/15 13:40:50;;;;;;;;;;;28.90;57.70;;;;;;5080378;28;19932;-75
2022/08/15 13:43:16;;;;;;;;;;;28.50;57.90;;;;;;5087147;28;19963;-75
2022/08/15 13:45:43;;;;;;;;;;;28.30;57.90;;;;;;5088102;28;19915;-76
2022/08/15 13:48:10;;;;;;;;;;;28.20;57.70;;;;;;5088319;28;19908;-75
2022/08/15 13:50:38;;;;;;;;;;;27.90;57.70;;;;;;5088575;28;19916;-76
2022/08/15 13:53:04;;;;;;;;;;;27.80;57.80;;;;;;5087064;28;19970;-75
2022/08/15 13:55:29;;;;;;;;;;;27.80;57.80;;;;;;5088038;28;19912;-75
2022/08/15 13:57:55;;;;;;;;;;;27.60;57.80;;;;;;5086963;28;19961;-75
2022/08/15 14:00:21;;;;;;;;;;;27.70;57.90;;;;;;5086843;28;19918;-74
2022/08/15 14:02:47;;;;;;;;;;;27.90;57.90;;;;;;5088991;28;19912;-75
2022/08/15 14:05:15;;;;;;;;;;;28.30;57.40;;;;;;5087254;28;19923;-75
2022/08/15 14:07:41;;;;;;;;;;;28.40;56.90;;;;;;5087060;28;19915;-75
2022/08/15 14:10:07;;;;;;;;;;;28.50;56.80;;;;;;5087717;28;19912;-75
2022/08/15 14:12:33;;;;;;;;;;;28.60;56.70;;;;;;5070250;28;19916;-75
2022/08/15 14:14:59;;;;;;;;;;;28.70;56.50;;;;;;5088338;28;19999;-75
2022/08/15 14:17:26;;;;;;;;;;;28.60;56.60;;;;;;5087597;28;19980;-75
2022/08/15 14:19:51;;;;;;;;;;;28.40;56.70;;;;;;5083486;28;20376;-75
2022/08/15 14:22:19;;;;;;;;;;;28.30;56.50;;;;;;5081309;28;19909;-75
2022/08/15 14:24:47;;;;;;;;;;;28.20;56.40;;;;;;5080984;28;19923;-74
2022/08/15 14:27:13;;;;;;;;;;;28.10;56.30;;;;;;5085927;28;19920;-74
2022/08/15 14:29:41;;;;;;;;;;;28.00;56.40;;;;;;5087950;28;19915;-75
2022/08/15 14:32:10;;;;;;;;;;;27.90;56.50;;;;;;5085008;28;19962;-75
2022/08/15 14:34:36;;;;;;;;;;;27.90;57.10;;;;;;5087578;28;20516;-75
2022/08/15 14:37:03;;;;;;;;;;;27.80;56.40;;;;;;5085674;28;19939;-75